sensor_id;sensor_type;location;lat;lon;timestamp;temperature;humidity
74364;DHT22;62797;49.740;10.154;2023-06-22T00:01:23;20.30;73.80
74364;DHT22;62797;49.740;10.154;2023-06-22T00:03:49;20.40;73.70
74364;DHT22;62797;49.740;10.154;2023-06-22T00:06:15;20.40;73.30
74364;DHT22;62797;49.740;10.154;2023-06-22T00:08:41;20.40;73.30
74364;DHT22;62797;49.740;10.154;2023-06-22T00:11:07;20.40;72.60
74364;DHT22;62797;49.740;10.154;2023-06-22T00:13:33;20.40;72.60
74364;DHT22;62797;49.740;10.154;2023-06-22T00:16:00;20.50;73.00
74364;DHT22;62797;49.740;10.154;2023-06-22T00:18:25;20.50;73.90
74364;DHT22;62797;49.740;10.154;2023-06-22T00:20:57;20.30;74.00
74364;DHT22;62797;49.740;10.154;2023-06-22T00:23:24;20.30;73.90
74364;DHT22;62797;49.740;10.154;2023-06-22T00:25:53;20.30;74.10
74364;DHT22;62797;49.740;10.154;2023-06-22T00:28:19;20.40;74.10
74364;DHT22;62797;49.740;10.154;2023-06-22T00:30:45;20.30;74.40
74364;DHT22;62797;49.740;10.154;2023-06-22T00:33:11;20.30;73.90
74364;DHT22;62797;49.740;10.154;2023-06-22T00:35:40;20.30;73.30
74364;DHT22;62797;49.740;10.154;2023-06-22T00:38:08;20.40;73.00
74364;DHT22;62797;49.740;10.154;2023-06-22T00:40:37;20.50;73.80
74364;DHT22;62797;49.740;10.154;2023-06-22T00:43:04;20.50;73.40
74364;DHT22;62797;49.740;10.154;2023-06-22T00:45:30;20.50;73.30
74364;DHT22;62797;49.740;10.154;2023-06-22T00:47:57;20.50;74.00
74364;DHT22;62797;49.740;10.154;2023-06-22T00:50:29;20.60;73.20
74364;DHT22;62797;49.740;10.154;2023-06-22T00:53:00;20.70;72.90
74364;DHT22;62797;49.740;10.154;2023-06-22T00:55:27;20.70;72.30
74364;DHT22;62797;49.740;10.154;2023-06-22T00:57:54;20.80;72.20
74364;DHT22;62797;49.740;10.154;2023-06-22T01:00:25;20.80;70.80
74364;DHT22;62797;49.740;10.154;2023-06-22T01:02:59;20.70;72.60
74364;DHT22;62797;49.740;10.154;2023-06-22T01:05:28;20.70;73.40
74364;DHT22;62797;49.740;10.154;2023-06-22T01:16:11;20.40;74.50
74364;DHT22;62797;49.740;10.154;2023-06-22T01:18:41;20.30;75.00
74364;DHT22;62797;49.740;10.154;2023-06-22T01:21:09;20.20;75.00
74364;DHT22;62797;49.740;10.154;2023-06-22T01:23:50;20.20;75.20
74364;DHT22;62797;49.740;10.154;2023-06-22T01:26:41;20.20;74.90
74364;DHT22;62797;49.740;10.154;2023-06-22T01:29:11;20.20;75.50
74364;DHT22;62797;49.740;10.154;2023-06-22T01:31:41;20.20;75.00
74364;DHT22;62797;49.740;10.154;2023-06-22T01:34:09;20.20;75.20
74364;DHT22;62797;49.740;10.154;2023-06-22T01:36:35;20.20;75.10
74364;DHT22;62797;49.740;10.154;2023-06-22T01:39:03;20.10;75.10
74364;DHT22;62797;49.740;10.154;2023-06-22T01:41:33;20.20;73.90
74364;DHT22;62797;49.740;10.154;2023-06-22T01:44:00;20.20;74.40
74364;DHT22;62797;49.740;10.154;2023-06-22T01:46:27;20.20;74.20
74364;DHT22;62797;49.740;10.154;2023-06-22T01:48:53;20.10;75.20
74364;DHT22;62797;49.740;10.154;2023-06-22T01:51:19;20.10;75.10
74364;DHT22;62797;49.740;10.154;2023-06-22T01:53:48;20.00;75.70
74364;DHT22;62797;49.740;10.154;2023-06-22T01:56:17;20.00;76.00
74364;DHT22;62797;49.740;10.154;2023-06-22T01:59:11;20.00;75.60
74364;DHT22;62797;49.740;10.154;2023-06-22T02:01:50;20.00;75.20
74364;DHT22;62797;49.740;10.154;2023-06-22T02:04:25;20.20;74.30
74364;DHT22;62797;49.740;10.154;2023-06-22T02:06:56;20.20;74.00
74364;DHT22;62797;49.740;10.154;2023-06-22T02:09:26;20.00;73.80
74364;DHT22;62797;49.740;10.154;2023-06-22T02:12:02;20.00;74.30
74364;DHT22;62797;49.740;10.154;2023-06-22T02:14:30;20.00;74.50
74364;DHT22;62797;49.740;10.154;2023-06-22T02:16:59;20.00;76.20
74364;DHT22;62797;49.740;10.154;2023-06-22T02:19:27;19.90;77.40
74364;DHT22;62797;49.740;10.154;2023-06-22T02:21:53;19.90;79.50
74364;DHT22;62797;49.740;10.154;2023-06-22T02:24:25;19.90;80.90
74364;DHT22;62797;49.740;10.154;2023-06-22T02:26:51;19.90;82.20
74364;DHT22;62797;49.740;10.154;2023-06-22T02:29:17;19.80;83.40
74364;DHT22;62797;49.740;10.154;2023-06-22T02:31:43;19.70;84.60
74364;DHT22;62797;49.740;10.154;2023-06-22T02:34:10;19.70;84.10
74364;DHT22;62797;49.740;10.154;2023-06-22T02:36:36;19.60;85.60
74364;DHT22;62797;49.740;10.154;2023-06-22T02:39:02;19.60;86.50
74364;DHT22;62797;49.740;10.154;2023-06-22T02:41:30;19.70;86.90
74364;DHT22;62797;49.740;10.154;2023-06-22T02:43:59;19.70;88.40
74364;DHT22;62797;49.740;10.154;2023-06-22T02:46:25;19.70;88.80
74364;DHT22;62797;49.740;10.154;2023-06-22T02:48:52;19.70;88.90
74364;DHT22;62797;49.740;10.154;2023-06-22T02:51:18;19.70;89.30
74364;DHT22;62797;49.740;10.154;2023-06-22T02:53:44;19.80;89.20
74364;DHT22;62797;49.740;10.154;2023-06-22T02:56:12;19.80;89.50
74364;DHT22;62797;49.740;10.154;2023-06-22T02:58:39;19.80;89.10
74364;DHT22;62797;49.740;10.154;2023-06-22T03:01:11;19.80;89.80
74364;DHT22;62797;49.740;10.154;2023-06-22T03:03:44;19.80;89.80
74364;DHT22;62797;49.740;10.154;2023-06-22T03:06:12;19.80;90.10
74364;DHT22;62797;49.740;10.154;2023-06-22T03:08:39;19.80;89.50
74364;DHT22;62797;49.740;10.154;2023-06-22T03:11:08;19.80;89.70
74364;DHT22;62797;49.740;10.154;2023-06-22T03:13:34;19.80;89.00
74364;DHT22;62797;49.740;10.154;2023-06-22T03:16:00;19.80;88.40
74364;DHT22;62797;49.740;10.154;2023-06-22T03:18:26;19.70;89.00
74364;DHT22;62797;49.740;10.154;2023-06-22T03:20:52;19.70;89.20
74364;DHT22;62797;49.740;10.154;2023-06-22T03:23:18;19.70;88.30
74364;DHT22;62797;49.740;10.154;2023-06-22T03:25:45;19.60;88.50
74364;DHT22;62797;49.740;10.154;2023-06-22T03:28:14;19.60;88.70
74364;DHT22;62797;49.740;10.154;2023-06-22T03:30:41;19.60;88.80
74364;DHT22;62797;49.740;10.154;2023-06-22T03:33:10;19.60;88.30
74364;DHT22;62797;49.740;10.154;2023-06-22T03:35:36;19.70;88.40
74364;DHT22;62797;49.740;10.154;2023-06-22T03:38:01;19.70;88.70
74364;DHT22;62797;49.740;10.154;2023-06-22T03:40:33;19.70;89.10
74364;DHT22;62797;49.740;10.154;2023-06-22T03:43:01;19.70;87.50
74364;DHT22;62797;49.740;10.154;2023-06-22T03:45:31;19.70;87.10
74364;DHT22;62797;49.740;10.154;2023-06-22T03:48:00;19.60;88.30
74364;DHT22;62797;49.740;10.154;2023-06-22T03:50:27;19.70;88.30
74364;DHT22;62797;49.740;10.154;2023-06-22T03:52:53;19.60;88.40
74364;DHT22;62797;49.740;10.154;2023-06-22T03:55:22;19.60;88.10
74364;DHT22;62797;49.740;10.154;2023-06-22T03:57:48;19.60;88.40
74364;DHT22;62797;49.740;10.154;2023-06-22T04:00:14;19.70;87.40
74364;DHT22;62797;49.740;10.154;2023-06-22T04:02:46;19.70;86.40
74364;DHT22;62797;49.740;10.154;2023-06-22T04:05:12;19.70;86.60
74364;DHT22;62797;49.740;10.154;2023-06-22T04:07:38;19.70;87.40
74364;DHT22;62797;49.740;10.154;2023-06-22T04:10:08;19.70;88.50
74364;DHT22;62797;49.740;10.154;2023-06-22T04:12:35;19.80;87.40
74364;DHT22;62797;49.740;10.154;2023-06-22T04:15:04;19.80;87.00
74364;DHT22;62797;49.740;10.154;2023-06-22T04:17:30;19.80;86.60
74364;DHT22;62797;49.740;10.154;2023-06-22T04:19:56;19.80;85.80
74364;DHT22;62797;49.740;10.154;2023-06-22T04:22:22;19.70;86.80
74364;DHT22;62797;49.740;10.154;2023-06-22T04:24:48;19.80;87.80
74364;DHT22;62797;49.740;10.154;2023-06-22T04:27:14;19.80;87.50
74364;DHT22;62797;49.740;10.154;2023-06-22T04:29:40;19.80;86.20
74364;DHT22;62797;49.740;10.154;2023-06-22T04:32:17;19.90;86.60
74364;DHT22;62797;49.740;10.154;2023-06-22T04:34:46;19.90;87.10
74364;DHT22;62797;49.740;10.154;2023-06-22T04:37:12;19.90;86.60
74364;DHT22;62797;49.740;10.154;2023-06-22T04:39:42;19.90;87.60
74364;DHT22;62797;49.740;10.154;2023-06-22T04:42:09;19.90;86.90
74364;DHT22;62797;49.740;10.154;2023-06-22T04:44:35;19.90;87.80
74364;DHT22;62797;49.740;10.154;2023-06-22T04:47:02;20.00;88.00
74364;DHT22;62797;49.740;10.154;2023-06-22T04:49:36;20.00;87.50
74364;DHT22;62797;49.740;10.154;2023-06-22T04:52:10;20.00;87.60
74364;DHT22;62797;49.740;10.154;2023-06-22T04:54:40;20.00;87.20
74364;DHT22;62797;49.740;10.154;2023-06-22T04:57:15;20.00;87.30
74364;DHT22;62797;49.740;10.154;2023-06-22T04:59:42;20.00;87.20
74364;DHT22;62797;49.740;10.154;2023-06-22T05:02:08;20.10;86.70
74364;DHT22;62797;49.740;10.154;2023-06-22T05:04:34;20.10;87.10
74364;DHT22;62797;49.740;10.154;2023-06-22T05:07:06;20.10;87.30
74364;DHT22;62797;49.740;10.154;2023-06-22T05:09:32;20.20;85.80
74364;DHT22;62797;49.740;10.154;2023-06-22T05:11:59;20.20;85.80
74364;DHT22;62797;49.740;10.154;2023-06-22T05:14:30;20.30;86.10
74364;DHT22;62797;49.740;10.154;2023-06-22T05:16:58;20.30;86.30
74364;DHT22;62797;49.740;10.154;2023-06-22T05:19:25;20.30;86.80
74364;DHT22;62797;49.740;10.154;2023-06-22T05:21:57;20.40;84.70
74364;DHT22;62797;49.740;10.154;2023-06-22T05:24:23;20.40;86.30
74364;DHT22;62797;49.740;10.154;2023-06-22T05:26:49;20.40;86.90
74364;DHT22;62797;49.740;10.154;2023-06-22T05:29:15;20.40;86.60
74364;DHT22;62797;49.740;10.154;2023-06-22T05:31:44;20.50;86.20
74364;DHT22;62797;49.740;10.154;2023-06-22T05:34:10;20.70;86.00
74364;DHT22;62797;49.740;10.154;2023-06-22T05:36:36;20.60;86.60
74364;DHT22;62797;49.740;10.154;2023-06-22T05:39:11;20.70;86.50
74364;DHT22;62797;49.740;10.154;2023-06-22T05:41:39;20.70;86.70
74364;DHT22;62797;49.740;10.154;2023-06-22T05:44:08;20.70;86.20
74364;DHT22;62797;49.740;10.154;2023-06-22T05:46:34;20.80;86.80
74364;DHT22;62797;49.740;10.154;2023-06-22T05:49:00;20.90;86.80
74364;DHT22;62797;49.740;10.154;2023-06-22T05:51:29;20.90;84.80
74364;DHT22;62797;49.740;10.154;2023-06-22T05:53:55;20.90;85.00
74364;DHT22;62797;49.740;10.154;2023-06-22T05:56:21;21.00;85.70
74364;DHT22;62797;49.740;10.154;2023-06-22T05:58:50;21.00;86.40
74364;DHT22;62797;49.740;10.154;2023-06-22T06:01:16;21.10;85.30
74364;DHT22;62797;49.740;10.154;2023-06-22T06:03:42;21.10;84.70
74364;DHT22;62797;49.740;10.154;2023-06-22T06:06:08;21.10;85.10
74364;DHT22;62797;49.740;10.154;2023-06-22T06:08:39;21.20;85.60
74364;DHT22;62797;49.740;10.154;2023-06-22T06:11:06;21.20;85.20
74364;DHT22;62797;49.740;10.154;2023-06-22T06:13:32;21.30;85.10
74364;DHT22;62797;49.740;10.154;2023-06-22T06:16:01;21.30;85.20
74364;DHT22;62797;49.740;10.154;2023-06-22T06:18:27;21.30;84.40
74364;DHT22;62797;49.740;10.154;2023-06-22T06:20:53;21.40;85.00
74364;DHT22;62797;49.740;10.154;2023-06-22T06:23:20;21.40;84.30
74364;DHT22;62797;49.740;10.154;2023-06-22T06:25:46;21.50;84.80
74364;DHT22;62797;49.740;10.154;2023-06-22T06:28:12;21.70;83.30
74364;DHT22;62797;49.740;10.154;2023-06-22T06:30:38;21.70;84.80
74364;DHT22;62797;49.740;10.154;2023-06-22T06:33:04;21.80;84.00
74364;DHT22;62797;49.740;10.154;2023-06-22T06:35:34;21.90;84.10
74364;DHT22;62797;49.740;10.154;2023-06-22T06:38:00;21.90;82.60
74364;DHT22;62797;49.740;10.154;2023-06-22T06:40:27;22.00;82.30
74364;DHT22;62797;49.740;10.154;2023-06-22T06:42:53;22.00;80.10
74364;DHT22;62797;49.740;10.154;2023-06-22T06:45:20;22.10;80.30
74364;DHT22;62797;49.740;10.154;2023-06-22T06:47:48;22.10;81.90
74364;DHT22;62797;49.740;10.154;2023-06-22T06:50:18;22.30;81.60
74364;DHT22;62797;49.740;10.154;2023-06-22T06:52:44;22.30;81.30
74364;DHT22;62797;49.740;10.154;2023-06-22T06:55:10;22.40;79.50
74364;DHT22;62797;49.740;10.154;2023-06-22T06:57:41;22.40;79.40
74364;DHT22;62797;49.740;10.154;2023-06-22T07:00:10;22.40;78.90
74364;DHT22;62797;49.740;10.154;2023-06-22T07:02:41;22.50;78.70
74364;DHT22;62797;49.740;10.154;2023-06-22T07:05:08;22.60;79.50
74364;DHT22;62797;49.740;10.154;2023-06-22T07:07:34;22.60;77.40
74364;DHT22;62797;49.740;10.154;2023-06-22T07:10:00;22.70;77.30
74364;DHT22;62797;49.740;10.154;2023-06-22T07:12:26;22.70;78.10
74364;DHT22;62797;49.740;10.154;2023-06-22T07:15:04;22.80;77.00
74364;DHT22;62797;49.740;10.154;2023-06-22T07:17:31;22.90;75.50
74364;DHT22;62797;49.740;10.154;2023-06-22T07:19:57;22.90;75.50
74364;DHT22;62797;49.740;10.154;2023-06-22T07:22:23;23.00;76.30
74364;DHT22;62797;49.740;10.154;2023-06-22T07:24:49;23.00;77.10
74364;DHT22;62797;49.740;10.154;2023-06-22T07:27:15;23.20;74.80
74364;DHT22;62797;49.740;10.154;2023-06-22T07:29:47;23.20;74.00
74364;DHT22;62797;49.740;10.154;2023-06-22T07:32:14;23.30;75.50
74364;DHT22;62797;49.740;10.154;2023-06-22T07:34:40;23.40;73.10
74364;DHT22;62797;49.740;10.154;2023-06-22T07:37:07;23.40;73.30
74364;DHT22;62797;49.740;10.154;2023-06-22T07:39:35;23.50;72.70
74364;DHT22;62797;49.740;10.154;2023-06-22T07:42:03;23.60;72.80
74364;DHT22;62797;49.740;10.154;2023-06-22T07:44:29;23.70;72.20
74364;DHT22;62797;49.740;10.154;2023-06-22T07:46:55;23.70;71.50
74364;DHT22;62797;49.740;10.154;2023-06-22T07:49:21;23.70;70.50
74364;DHT22;62797;49.740;10.154;2023-06-22T07:51:47;23.70;69.60
74364;DHT22;62797;49.740;10.154;2023-06-22T07:54:13;23.90;66.90
74364;DHT22;62797;49.740;10.154;2023-06-22T07:56:41;24.10;66.90
74364;DHT22;62797;49.740;10.154;2023-06-22T07:59:07;24.20;65.10
74364;DHT22;62797;49.740;10.154;2023-06-22T08:01:32;24.30;65.60
74364;DHT22;62797;49.740;10.154;2023-06-22T08:03:59;24.40;63.10
74364;DHT22;62797;49.740;10.154;2023-06-22T08:06:25;24.40;61.70
74364;DHT22;62797;49.740;10.154;2023-06-22T08:08:50;24.50;60.10
74364;DHT22;62797;49.740;10.154;2023-06-22T08:11:18;24.60;61.00
74364;DHT22;62797;49.740;10.154;2023-06-22T08:13:44;24.60;62.20
74364;DHT22;62797;49.740;10.154;2023-06-22T08:16:10;24.70;58.90
74364;DHT22;62797;49.740;10.154;2023-06-22T08:18:36;24.80;59.90
74364;DHT22;62797;49.740;10.154;2023-06-22T08:21:06;25.00;60.90
74364;DHT22;62797;49.740;10.154;2023-06-22T08:23:31;25.10;56.10
74364;DHT22;62797;49.740;10.154;2023-06-22T08:25:57;25.20;54.90
74364;DHT22;62797;49.740;10.154;2023-06-22T08:28:23;25.20;55.10
74364;DHT22;62797;49.740;10.154;2023-06-22T08:30:49;25.20;52.90
74364;DHT22;62797;49.740;10.154;2023-06-22T08:33:15;25.30;53.00
74364;DHT22;62797;49.740;10.154;2023-06-22T08:35:41;25.40;49.90
74364;DHT22;62797;49.740;10.154;2023-06-22T08:38:07;25.40;51.00
74364;DHT22;62797;49.740;10.154;2023-06-22T08:40:33;25.50;50.00
74364;DHT22;62797;49.740;10.154;2023-06-22T08:42:59;25.50;49.80
74364;DHT22;62797;49.740;10.154;2023-06-22T08:45:25;25.50;49.80
74364;DHT22;62797;49.740;10.154;2023-06-22T08:47:51;25.70;47.20
74364;DHT22;62797;49.740;10.154;2023-06-22T08:50:17;25.80;48.00
74364;DHT22;62797;49.740;10.154;2023-06-22T08:52:43;25.90;49.00
74364;DHT22;62797;49.740;10.154;2023-06-22T08:55:09;25.90;46.10
74364;DHT22;62797;49.740;10.154;2023-06-22T08:57:36;26.10;47.30
74364;DHT22;62797;49.740;10.154;2023-06-22T09:00:07;26.20;46.20
74364;DHT22;62797;49.740;10.154;2023-06-22T09:02:55;26.20;43.30
74364;DHT22;62797;49.740;10.154;2023-06-22T09:05:27;26.30;44.30
74364;DHT22;62797;49.740;10.154;2023-06-22T09:07:53;26.50;42.00
74364;DHT22;62797;49.740;10.154;2023-06-22T09:10:20;26.60;43.90
74364;DHT22;62797;49.740;10.154;2023-06-22T09:12:46;26.80;42.70
74364;DHT22;62797;49.740;10.154;2023-06-22T09:15:12;26.90;42.30
74364;DHT22;62797;49.740;10.154;2023-06-22T09:17:39;27.00;41.00
74364;DHT22;62797;49.740;10.154;2023-06-22T09:20:06;27.10;39.40
74364;DHT22;62797;49.740;10.154;2023-06-22T09:22:33;27.20;40.60
74364;DHT22;62797;49.740;10.154;2023-06-22T09:24:59;27.30;37.10
74364;DHT22;62797;49.740;10.154;2023-06-22T09:27:29;27.40;37.90
74364;DHT22;62797;49.740;10.154;2023-06-22T09:29:54;27.50;38.10
74364;DHT22;62797;49.740;10.154;2023-06-22T09:32:21;27.70;35.70
74364;DHT22;62797;49.740;10.154;2023-06-22T09:34:47;28.00;35.10
74364;DHT22;62797;49.740;10.154;2023-06-22T09:37:12;28.30;30.70
74364;DHT22;62797;49.740;10.154;2023-06-22T09:39:38;28.70;28.50
74364;DHT22;62797;49.740;10.154;2023-06-22T09:42:08;29.20;29.40
74364;DHT22;62797;49.740;10.154;2023-06-22T09:44:34;29.70;27.20
74364;DHT22;62797;49.740;10.154;2023-06-22T09:47:00;30.20;27.00
74364;DHT22;62797;49.740;10.154;2023-06-22T09:49:26;30.40;27.20
74364;DHT22;62797;49.740;10.154;2023-06-22T09:51:52;30.60;24.90
74364;DHT22;62797;49.740;10.154;2023-06-22T09:54:21;30.70;23.20
74364;DHT22;62797;49.740;10.154;2023-06-22T09:56:50;30.90;24.90
74364;DHT22;62797;49.740;10.154;2023-06-22T09:59:16;31.10;25.00
74364;DHT22;62797;49.740;10.154;2023-06-22T10:01:42;31.50;21.50
74364;DHT22;62797;49.740;10.154;2023-06-22T10:04:08;31.40;21.50
74364;DHT22;62797;49.740;10.154;2023-06-22T10:06:34;31.50;19.20
74364;DHT22;62797;49.740;10.154;2023-06-22T10:09:03;31.60;19.60
74364;DHT22;62797;49.740;10.154;2023-06-22T10:11:29;31.50;18.80
74364;DHT22;62797;49.740;10.154;2023-06-22T10:13:56;31.50;19.10
74364;DHT22;62797;49.740;10.154;2023-06-22T10:16:31;31.40;19.20
74364;DHT22;62797;49.740;10.154;2023-06-22T10:18:57;31.50;21.30
74364;DHT22;62797;49.740;10.154;2023-06-22T10:21:23;31.70;20.30
74364;DHT22;62797;49.740;10.154;2023-06-22T10:23:49;31.70;19.60
74364;DHT22;62797;49.740;10.154;2023-06-22T10:26:20;31.80;20.80
74364;DHT22;62797;49.740;10.154;2023-06-22T10:28:46;31.80;20.10
74364;DHT22;62797;49.740;10.154;2023-06-22T10:31:11;32.00;20.20
74364;DHT22;62797;49.740;10.154;2023-06-22T10:33:41;32.10;19.40
74364;DHT22;62797;49.740;10.154;2023-06-22T10:36:09;32.30;19.60
74364;DHT22;62797;49.740;10.154;2023-06-22T10:38:37;32.70;19.10
74364;DHT22;62797;49.740;10.154;2023-06-22T10:41:04;32.70;17.90
74364;DHT22;62797;49.740;10.154;2023-06-22T10:43:29;32.60;18.80
74364;DHT22;62797;49.740;10.154;2023-06-22T10:45:59;32.70;19.50
74364;DHT22;62797;49.740;10.154;2023-06-22T10:48:25;32.70;18.30
74364;DHT22;62797;49.740;10.154;2023-06-22T10:50:51;32.70;19.50
74364;DHT22;62797;49.740;10.154;2023-06-22T10:53:18;32.90;18.00
74364;DHT22;62797;49.740;10.154;2023-06-22T10:55:45;33.10;19.40
74364;DHT22;62797;49.740;10.154;2023-06-22T10:58:10;33.30;16.80
74364;DHT22;62797;49.740;10.154;2023-06-22T11:00:36;33.40;16.90
74364;DHT22;62797;49.740;10.154;2023-06-22T11:03:03;33.30;17.70
74364;DHT22;62797;49.740;10.154;2023-06-22T11:05:34;33.40;17.80
74364;DHT22;62797;49.740;10.154;2023-06-22T11:08:00;33.30;18.50
74364;DHT22;62797;49.740;10.154;2023-06-22T11:10:26;33.10;17.50
74364;DHT22;62797;49.740;10.154;2023-06-22T11:12:57;32.90;17.80
74364;DHT22;62797;49.740;10.154;2023-06-22T11:15:25;32.90;17.90
74364;DHT22;62797;49.740;10.154;2023-06-22T11:17:51;32.90;19.20
74364;DHT22;62797;49.740;10.154;2023-06-22T11:20:17;32.90;18.10
74364;DHT22;62797;49.740;10.154;2023-06-22T11:22:43;33.10;17.50
74364;DHT22;62797;49.740;10.154;2023-06-22T11:25:10;33.40;16.50
74364;DHT22;62797;49.740;10.154;2023-06-22T11:27:37;33.40;16.90
74364;DHT22;62797;49.740;10.154;2023-06-22T11:30:04;33.20;16.40
74364;DHT22;62797;49.740;10.154;2023-06-22T11:32:30;33.10;18.30
74364;DHT22;62797;49.740;10.154;2023-06-22T11:34:56;33.30;18.00
74364;DHT22;62797;49.740;10.154;2023-06-22T11:37:22;33.50;17.50
74364;DHT22;62797;49.740;10.154;2023-06-22T11:39:48;33.80;17.40
74364;DHT22;62797;49.740;10.154;2023-06-22T11:42:14;33.80;16.60
74364;DHT22;62797;49.740;10.154;2023-06-22T11:44:40;33.90;16.00
74364;DHT22;62797;49.740;10.154;2023-06-22T11:47:06;33.40;15.90
74364;DHT22;62797;49.740;10.154;2023-06-22T11:49:32;33.20;16.80
74364;DHT22;62797;49.740;10.154;2023-06-22T11:51:58;33.10;16.50
74364;DHT22;62797;49.740;10.154;2023-06-22T11:54:24;33.10;16.70
74364;DHT22;62797;49.740;10.154;2023-06-22T11:56:49;33.30;18.70
74364;DHT22;62797;49.740;10.154;2023-06-22T11:59:15;33.40;17.60
74364;DHT22;62797;49.740;10.154;2023-06-22T12:01:41;33.40;17.60
74364;DHT22;62797;49.740;10.154;2023-06-22T12:04:07;33.60;17.90
74364;DHT22;62797;49.740;10.154;2023-06-22T12:06:33;33.60;17.90
74364;DHT22;62797;49.740;10.154;2023-06-22T12:08:59;33.80;17.40
74364;DHT22;62797;49.740;10.154;2023-06-22T12:11:25;33.90;18.30
74364;DHT22;62797;49.740;10.154;2023-06-22T12:13:52;34.00;17.60
74364;DHT22;62797;49.740;10.154;2023-06-22T12:16:18;34.00;15.80
74364;DHT22;62797;49.740;10.154;2023-06-22T12:18:45;33.80;16.60
74364;DHT22;62797;49.740;10.154;2023-06-22T12:21:12;33.90;16.60
74364;DHT22;62797;49.740;10.154;2023-06-22T12:23:40;33.80;16.10
74364;DHT22;62797;49.740;10.154;2023-06-22T12:26:06;33.90;16.70
74364;DHT22;62797;49.740;10.154;2023-06-22T12:28:32;34.00;17.10
74364;DHT22;62797;49.740;10.154;2023-06-22T12:30:58;34.10;17.20
74364;DHT22;62797;49.740;10.154;2023-06-22T12:33:24;34.20;16.40
74364;DHT22;62797;49.740;10.154;2023-06-22T12:35:49;34.20;16.50
74364;DHT22;62797;49.740;10.154;2023-06-22T12:38:15;34.10;15.50
74364;DHT22;62797;49.740;10.154;2023-06-22T12:40:41;33.90;15.70
74364;DHT22;62797;49.740;10.154;2023-06-22T12:43:07;33.90;15.40
74364;DHT22;62797;49.740;10.154;2023-06-22T12:45:33;33.80;17.40
74364;DHT22;62797;49.740;10.154;2023-06-22T12:48:00;33.80;16.50
74364;DHT22;62797;49.740;10.154;2023-06-22T12:50:26;33.70;17.80
74364;DHT22;62797;49.740;10.154;2023-06-22T12:53:04;33.60;17.60
74364;DHT22;62797;49.740;10.154;2023-06-22T12:55:32;33.60;18.10
74364;DHT22;62797;49.740;10.154;2023-06-22T12:57:58;33.50;18.50
74364;DHT22;62797;49.740;10.154;2023-06-22T13:00:23;33.40;19.50
74364;DHT22;62797;49.740;10.154;2023-06-22T13:02:49;33.40;20.50
74364;DHT22;62797;49.740;10.154;2023-06-22T13:05:15;33.30;19.70
74364;DHT22;62797;49.740;10.154;2023-06-22T13:07:41;33.30;19.20
74364;DHT22;62797;49.740;10.154;2023-06-22T13:10:08;33.30;19.10
74364;DHT22;62797;49.740;10.154;2023-06-22T13:12:34;33.40;18.20
74364;DHT22;62797;49.740;10.154;2023-06-22T13:15:00;33.50;18.40
74364;DHT22;62797;49.740;10.154;2023-06-22T13:17:26;33.70;19.10
74364;DHT22;62797;49.740;10.154;2023-06-22T13:19:52;34.10;16.80
74364;DHT22;62797;49.740;10.154;2023-06-22T13:22:31;34.20;18.90
74364;DHT22;62797;49.740;10.154;2023-06-22T13:24:57;34.50;17.90
74364;DHT22;62797;49.740;10.154;2023-06-22T13:27:24;34.60;17.00
74364;DHT22;62797;49.740;10.154;2023-06-22T13:29:50;34.90;16.60
74364;DHT22;62797;49.740;10.154;2023-06-22T13:32:16;35.00;17.20
74364;DHT22;62797;49.740;10.154;2023-06-22T13:34:42;34.90;15.60
74364;DHT22;62797;49.740;10.154;2023-06-22T13:37:08;34.70;17.00
74364;DHT22;62797;49.740;10.154;2023-06-22T13:39:34;34.50;16.50
74364;DHT22;62797;49.740;10.154;2023-06-22T13:42:00;34.20;16.30
74364;DHT22;62797;49.740;10.154;2023-06-22T13:44:26;33.90;16.10
74364;DHT22;62797;49.740;10.154;2023-06-22T13:46:57;33.70;15.80
74364;DHT22;62797;49.740;10.154;2023-06-22T13:49:23;33.50;17.40
74364;DHT22;62797;49.740;10.154;2023-06-22T13:51:48;33.70;18.60
74364;DHT22;62797;49.740;10.154;2023-06-22T13:54:15;33.80;18.70
74364;DHT22;62797;49.740;10.154;2023-06-22T13:56:41;34.10;18.30
74364;DHT22;62797;49.740;10.154;2023-06-22T13:59:06;34.30;16.50
74364;DHT22;62797;49.740;10.154;2023-06-22T14:01:35;34.60;17.20
74364;DHT22;62797;49.740;10.154;2023-06-22T14:04:01;34.80;16.80
74364;DHT22;62797;49.740;10.154;2023-06-22T14:06:29;34.70;16.30
74364;DHT22;62797;49.740;10.154;2023-06-22T14:08:55;34.40;13.80
74364;DHT22;62797;49.740;10.154;2023-06-22T14:11:21;34.00;15.00
74364;DHT22;62797;49.740;10.154;2023-06-22T14:13:47;34.00;16.50
74364;DHT22;62797;49.740;10.154;2023-06-22T14:16:13;34.20;16.60
74364;DHT22;62797;49.740;10.154;2023-06-22T14:18:40;34.60;16.40
74364;DHT22;62797;49.740;10.154;2023-06-22T14:21:06;35.00;15.90
74364;DHT22;62797;49.740;10.154;2023-06-22T14:23:32;35.40;15.00
74364;DHT22;62797;49.740;10.154;2023-06-22T14:26:01;35.70;14.30
74364;DHT22;62797;49.740;10.154;2023-06-22T14:28:27;36.00;14.70
74364;DHT22;62797;49.740;10.154;2023-06-22T14:30:52;35.80;13.50
74364;DHT22;62797;49.740;10.154;2023-06-22T14:33:18;35.40;13.40
74364;DHT22;62797;49.740;10.154;2023-06-22T14:35:44;35.10;14.80
74364;DHT22;62797;49.740;10.154;2023-06-22T14:38:10;35.00;16.40
74364;DHT22;62797;49.740;10.154;2023-06-22T14:40:35;35.10;15.70
74364;DHT22;62797;49.740;10.154;2023-06-22T14:43:01;35.10;15.20
74364;DHT22;62797;49.740;10.154;2023-06-22T14:45:27;35.30;15.90
74364;DHT22;62797;49.740;10.154;2023-06-22T14:47:53;35.70;14.00
74364;DHT22;62797;49.740;10.154;2023-06-22T14:50:19;35.80;13.60
74364;DHT22;62797;49.740;10.154;2023-06-22T14:52:45;35.90;14.00
74364;DHT22;62797;49.740;10.154;2023-06-22T14:55:11;36.00;13.10
74364;DHT22;62797;49.740;10.154;2023-06-22T14:57:37;35.90;14.70
74364;DHT22;62797;49.740;10.154;2023-06-22T15:00:03;35.80;11.80
74364;DHT22;62797;49.740;10.154;2023-06-22T15:02:29;35.60;10.50
74364;DHT22;62797;49.740;10.154;2023-06-22T15:04:55;35.60;13.00
74364;DHT22;62797;49.740;10.154;2023-06-22T15:07:24;35.80;13.10
74364;DHT22;62797;49.740;10.154;2023-06-22T15:09:53;35.90;12.60
74364;DHT22;62797;49.740;10.154;2023-06-22T15:12:19;35.70;13.80
74364;DHT22;62797;49.740;10.154;2023-06-22T15:14:45;35.90;13.40
74364;DHT22;62797;49.740;10.154;2023-06-22T15:17:11;36.20;12.90
74364;DHT22;62797;49.740;10.154;2023-06-22T15:19:39;36.40;11.90
74364;DHT22;62797;49.740;10.154;2023-06-22T15:22:09;36.40;11.80
74364;DHT22;62797;49.740;10.154;2023-06-22T15:24:34;36.50;11.10